Time;durP1;ratioP1;P1;durP2;ratioP2;P2;SDS_P1;SDS_P2;PMS_P1;PMS_P2;Temp;Humidity;BMP_temperature;BMP_pressure;BME280_temperature;BME280_humidity;BME280_pressure;Samples;Min_cycle;Max_cycle;Signal;HPM_P1;HPM_P2
2022/06/25 00:00:23;;;;;;;3.58;1.80;;;20.40;83.70;;;;;;5006081;28;20040;-76
2022/06/25 00:02:48;;;;;;;2.45;1.50;;;20.40;83.60;;;;;;4989965;28;20030;-76
2022/06/25 00:05:29;;;;;;;2.50;1.50;;;20.40;83.50;;;;;;4989632;28;20034;-76
2022/06/25 00:07:55;;;;;;;3.40;1.58;;;20.40;83.40;;;;;;4991832;28;20491;-76
2022/06/25 00:10:21;;;;;;;3.22;1.55;;;20.40;83.30;;;;;;5000265;28;20457;-77
2022/06/25 00:12:47;;;;;;;2.72;1.73;;;20.50;83.30;;;;;;5007960;28;20663;-76
2022/06/25 00:15:12;;;;;;;3.22;1.88;;;20.40;83.40;;;;;;5007962;28;20032;-75
2022/06/25 00:17:38;;;;;;;2.50;1.75;;;20.40;83.40;;;;;;5024878;28;20025;-75
2022/06/25 00:20:04;;;;;;;4.18;2.05;;;20.40;83.60;;;;;;5025897;28;20036;-76
2022/06/25 00:22:30;;;;;;;2.58;1.67;;;20.40;83.60;;;;;;5006831;28;20458;-76
2022/06/25 00:24:56;;;;;;;4.28;1.80;;;20.40;83.70;;;;;;5003772;28;20026;-76
2022/06/25 00:27:22;;;;;;;3.13;1.60;;;20.40;83.70;;;;;;5008323;28;20033;-75
2022/06/25 00:29:47;;;;;;;3.38;1.85;;;20.40;83.80;;;;;;5008580;28;20025;-76
2022/06/25 00:32:13;;;;;;;3.05;1.80;;;20.40;83.80;;;;;;5008500;28;20498;-76
2022/06/25 00:34:38;;;;;;;3.58;1.90;;;20.30;83.80;;;;;;5018273;28;20531;-76
2022/06/25 00:37:05;;;;;;;2.03;1.50;;;20.40;83.90;;;;;;5012412;28;20038;-76
2022/06/25 00:39:31;;;;;;;2.78;1.80;;;20.40;83.90;;;;;;5006859;28;20056;-76
2022/06/25 00:41:56;;;;;;;2.83;1.85;;;20.30;83.90;;;;;;5007927;28;20156;-76
2022/06/25 00:44:21;;;;;;;2.45;1.60;;;20.30;83.90;;;;;;5007998;28;20763;-75
2022/06/25 00:46:48;;;;;;;3.08;1.80;;;20.30;84.00;;;;;;5007867;28;20036;-75
2022/06/25 00:49:14;;;;;;;3.70;1.58;;;20.30;83.90;;;;;;5007632;28;20072;-76
2022/06/25 00:51:41;;;;;;;3.67;1.70;;;20.40;83.90;;;;;;5005713;28;20072;-76
2022/06/25 00:54:09;;;;;;;3.50;1.70;;;20.40;83.80;;;;;;5025189;28;20463;-76
2022/06/25 00:56:43;;;;;;;3.08;1.60;;;20.40;83.60;;;;;;5025216;28;20037;-75
2022/06/25 00:59:12;;;;;;;2.30;1.50;;;20.40;83.50;;;;;;5024747;28;20049;-76
2022/06/25 01:01:37;;;;;;;2.72;1.63;;;20.40;83.50;;;;;;5024809;28;20037;-75
2022/06/25 01:04:03;;;;;;;3.63;1.80;;;20.40;83.40;;;;;;5007601;28;20022;-75
2022/06/25 01:06:29;;;;;;;3.95;1.70;;;20.40;83.50;;;;;;5024881;28;20602;-76
2022/06/25 01:08:56;;;;;;;2.75;1.70;;;20.40;83.60;;;;;;5024544;28;20025;-76
2022/06/25 01:11:23;;;;;;;3.33;2.00;;;20.40;83.60;;;;;;5024894;28;20032;-75
2022/06/25 01:13:48;;;;;;;2.60;1.70;;;20.40;83.80;;;;;;5024701;28;20104;-76
2022/06/25 01:16:14;;;;;;;3.05;1.80;;;20.40;83.90;;;;;;5007305;28;20352;-76
2022/06/25 01:18:39;;;;;;;3.05;1.80;;;20.40;83.90;;;;;;5007014;28;20172;-76
2022/06/25 01:21:05;;;;;;;3.50;1.90;;;20.40;84.00;;;;;;5024645;28;20137;-75
2022/06/25 01:23:31;;;;;;;2.90;1.70;;;20.40;84.00;;;;;;5007459;28;20017;-76
2022/06/25 01:25:56;;;;;;;5.10;1.88;;;20.30;84.00;;;;;;5024957;28;20486;-76
2022/06/25 01:28:22;;;;;;;3.58;1.75;;;20.30;84.00;;;;;;5024562;28;20040;-76
2022/06/25 01:30:47;;;;;;;3.85;1.60;;;20.30;84.00;;;;;;5024686;28;20095;-75
2022/06/25 01:33:13;;;;;;;3.33;1.80;;;20.30;84.00;;;;;;5007226;28;20037;-76
2022/06/25 01:35:38;;;;;;;2.90;1.70;;;20.30;84.10;;;;;;5025032;28;20030;-76
2022/06/25 01:38:04;;;;;;;3.50;1.90;;;20.30;84.10;;;;;;5006624;28;20123;-75
2022/06/25 01:40:31;;;;;;;3.13;1.80;;;20.30;84.10;;;;;;5007224;28;20148;-76
2022/06/25 01:43:00;;;;;;;4.30;1.63;;;20.30;84.10;;;;;;5006436;28;20033;-76
2022/06/25 01:45:31;;;;;;;2.97;1.55;;;20.40;84.00;;;;;;5024409;28;20537;-76
2022/06/25 01:47:58;;;;;;;3.60;1.80;;;20.40;83.90;;;;;;5006790;28;20836;-75
2022/06/25 01:50:25;;;;;;;2.53;1.70;;;20.40;83.80;;;;;;5006884;28;20037;-76
2022/06/25 01:52:51;;;;;;;4.05;1.80;;;20.40;83.70;;;;;;5005091;28;20175;-75
2022/06/25 01:55:18;;;;;;;2.75;1.80;;;20.40;83.60;;;;;;5024718;28;20144;-75
2022/06/25 01:57:43;;;;;;;2.47;1.70;;;20.40;83.60;;;;;;5024067;28;20088;-75
2022/06/25 02:00:12;;;;;;;3.03;1.70;;;20.40;83.70;;;;;;5024041;28;20491;-76
2022/06/25 02:02:39;;;;;;;3.55;1.80;;;20.40;83.80;;;;;;5020898;28;20021;-76
2022/06/25 02:05:05;;;;;;;4.07;1.75;;;20.40;83.90;;;;;;5023862;28;20033;-76
2022/06/25 02:07:31;;;;;;;2.88;1.83;;;20.40;83.90;;;;;;5006525;28;20208;-75
2022/06/25 02:09:57;;;;;;;3.22;1.70;;;20.40;84.00;;;;;;5006951;28;20540;-75
2022/06/25 02:12:22;;;;;;;3.72;1.85;;;20.40;84.10;;;;;;5024618;28;20092;-76
2022/06/25 02:14:48;;;;;;;3.00;1.73;;;20.30;84.10;;;;;;5006563;28;20120;-75
2022/06/25 02:17:13;;;;;;;2.45;1.60;;;20.30;84.10;;;;;;5006628;28;20049;-76
2022/06/25 02:19:39;;;;;;;2.92;1.90;;;20.30;84.20;;;;;;5027649;28;20030;-75
2022/06/25 02:22:05;;;;;;;2.47;1.60;;;20.30;84.20;;;;;;5010256;28;20028;-75
2022/06/25 02:24:30;;;;;;;2.85;1.70;;;20.30;84.20;;;;;;5010009;28;20026;-76
2022/06/25 02:26:56;;;;;;;3.78;1.73;;;20.30;84.30;;;;;;5028160;28;20033;-76
2022/06/25 02:29:21;;;;;;;3.65;1.90;;;20.30;84.30;;;;;;5028365;28;20499;-76
2022/06/25 02:31:47;;;;;;;2.60;1.67;;;20.30;84.30;;;;;;5010771;28;20030;-75
2022/06/25 02:34:12;;;;;;;2.58;1.60;;;20.30;84.30;;;;;;5011343;28;20030;-75
2022/06/25 02:36:38;;;;;;;3.92;1.88;;;20.30;84.20;;;;;;5028682;28;20103;-75
2022/06/25 02:39:03;;;;;;;3.53;1.60;;;20.40;84.10;;;;;;5011084;28;20120;-76
2022/06/25 02:41:29;;;;;;;2.50;1.63;;;20.40;84.00;;;;;;5011332;28;20036;-76
2022/06/25 02:43:54;;;;;;;3.15;1.70;;;20.40;83.90;;;;;;5011261;28;20494;-75
2022/06/25 02:46:20;;;;;;;3.88;1.63;;;20.40;83.80;;;;;;5007872;28;20083;-76
2022/06/25 02:48:45;;;;;;;2.50;1.60;;;20.40;83.80;;;;;;5027720;28;20064;-75
2022/06/25 02:51:11;;;;;;;3.60;1.50;;;20.40;83.80;;;;;;5028806;28;20033;-75
2022/06/25 02:53:36;;;;;;;2.55;1.73;;;20.40;83.90;;;;;;5010525;28;20156;-74
2022/06/25 02:58:56;;;;;;;2.80;1.60;;;20.40;84.10;;;;;;5028221;28;20517;-74
2022/06/25 03:01:22;;;;;;;;;;;20.40;84.20;;;;;;5010974;28;20029;-75
2022/06/25 03:03:48;;;;;;;3.50;1.80;;;20.40;84.30;;;;;;5010434;28;19908;-78
2022/06/25 03:06:14;;;;;;;2.45;1.60;;;20.30;84.30;;;;;;5012689;28;20036;-77
2022/06/25 03:08:40;;;;;;;3.55;1.70;;;20.30;84.30;;;;;;5030651;28;20041;-81
2022/06/25 03:11:06;;;;;;;2.63;1.63;;;20.30;84.40;;;;;;5030659;28;20207;-77
2022/06/25 03:13:34;;;;;;;3.63;1.60;;;20.30;84.40;;;;;;5012941;28;20033;-77
2022/06/25 03:16:00;;;;;;;2.95;1.63;;;20.30;84.40;;;;;;5030966;28;20047;-77
2022/06/25 03:18:25;;;;;;;2.78;1.60;;;20.30;84.40;;;;;;5030243;28;20029;-78
2022/06/25 03:20:52;;;;;;;3.03;1.88;;;20.30;84.40;;;;;;5030890;28;20102;-77
2022/06/25 03:23:19;;;;;;;4.20;1.60;;;20.30;84.50;;;;;;5012655;28;20026;-78
2022/06/25 03:25:44;;;;;;;2.45;1.60;;;20.30;84.40;;;;;;5030661;28;20722;-77
2022/06/25 03:28:10;;;;;;;2.58;1.48;;;20.30;84.40;;;;;;5030021;28;20120;-77
2022/06/25 03:30:35;;;;;;;3.22;1.50;;;20.40;84.30;;;;;;5029373;28;20040;-77
2022/06/25 03:33:01;;;;;;;2.13;1.33;;;20.40;84.20;;;;;;5012789;28;20482;-78
2022/06/25 03:35:26;;;;;;;2.58;1.63;;;20.40;84.10;;;;;;5012639;28;20041;-77
2022/06/25 03:37:52;;;;;;;2.25;1.45;;;20.40;84.00;;;;;;5012651;28;20025;-76
2022/06/25 03:40:17;;;;;;;2.42;1.70;;;20.40;83.90;;;;;;5030241;28;20481;-76
2022/06/25 03:42:44;;;;;;;2.70;1.70;;;20.40;84.00;;;;;;5030273;28;20030;-77
2022/06/25 03:45:10;;;;;;;2.95;1.77;;;20.40;84.10;;;;;;5030004;28;20087;-77
2022/06/25 03:47:35;;;;;;;2.45;1.60;;;20.40;84.20;;;;;;5012302;28;20487;-79
2022/06/25 03:50:01;;;;;;;2.95;1.65;;;20.40;84.30;;;;;;5012157;28;20022;-76
2022/06/25 03:52:27;;;;;;;2.78;1.80;;;20.40;84.40;;;;;;5030256;28;20021;-76
2022/06/25 03:54:53;;;;;;;2.75;1.60;;;20.30;84.40;;;;;;5012307;28;20083;-76
2022/06/25 03:57:18;;;;;;;2.85;1.77;;;20.30;84.40;;;;;;5012205;28;20125;-77
2022/06/25 03:59:44;;;;;;;2.80;1.40;;;20.30;84.40;;;;;;5029523;28;20129;-78
2022/06/25 04:02:09;;;;;;;2.17;1.40;;;20.30;84.50;;;;;;5029934;28;20031;-77
2022/06/25 04:04:35;;;;;;;2.20;1.50;;;20.30;84.40;;;;;;5011992;28;20034;-75
2022/06/25 04:07:01;;;;;;;2.78;1.67;;;20.30;84.40;;;;;;5029875;28;20037;-76
2022/06/25 04:09:26;;;;;;;2.40;1.48;;;20.30;84.40;;;;;;5029376;28;20033;-79
2022/06/25 04:11:52;;;;;;;1.60;1.23;;;20.30;84.50;;;;;;5011164;28;20120;-75
2022/06/25 04:14:17;;;;;;;2.20;1.60;;;20.30;84.50;;;;;;5029557;28;20109;-77
2022/06/25 04:16:42;;;;;;;2.78;1.60;;;20.30;84.50;;;;;;5011550;28;20030;-76
2022/06/25 04:19:08;;;;;;;2.15;1.45;;;20.30;84.50;;;;;;5029539;28;20028;-77
2022/06/25 04:21:34;;;;;;;2.53;1.63;;;20.30;84.40;;;;;;5011783;28;20021;-78
2022/06/25 04:23:59;;;;;;;2.33;1.63;;;20.40;84.30;;;;;;5011728;28;20504;-75
2022/06/25 04:26:25;;;;;;;2.55;1.50;;;20.40;84.20;;;;;;5028204;28;20120;-76
2022/06/25 04:29:06;;;;;;;2.03;1.40;;;20.40;84.10;;;;;;5029135;28;20093;-77
2022/06/25 04:31:33;;;;;;;2.22;1.50;;;20.40;84.00;;;;;;5011813;28;20025;-77
2022/06/25 04:33:58;;;;;;;2.65;1.70;;;20.40;84.00;;;;;;5029046;28;20029;-78
2022/06/25 04:36:24;;;;;;;3.35;1.50;;;20.40;84.10;;;;;;5029091;28;20852;-76
2022/06/25 04:38:50;;;;;;;2.45;1.60;;;20.40;84.20;;;;;;5029062;28;20056;-76
2022/06/25 04:41:16;;;;;;;2.50;1.70;;;20.40;84.30;;;;;;5011276;28;20486;-76
2022/06/25 04:43:41;;;;;;;2.33;1.55;;;20.30;84.30;;;;;;5030386;28;20025;-77
2022/06/25 04:46:07;;;;;;;2.20;1.60;;;20.40;84.60;;;;;;5026415;28;20029;-77
2022/06/25 04:48:33;;;;;;;2.45;1.50;;;20.30;84.40;;;;;;5028464;28;20041;-80
2022/06/25 04:50:58;;;;;;;3.63;1.73;;;20.30;84.50;;;;;;5027766;28;20038;-77
2022/06/25 04:53:24;;;;;;;3.03;1.52;;;20.30;84.40;;;;;;5027633;28;20040;-76
2022/06/25 04:55:49;;;;;;;2.47;1.60;;;20.30;84.50;;;;;;5011009;28;20029;-77
2022/06/25 04:58:15;;;;;;;2.22;1.50;;;20.30;84.50;;;;;;5028776;28;20041;-76
2022/06/25 05:00:40;;;;;;;2.72;1.40;;;20.30;84.50;;;;;;5028863;28;20104;-77
2022/06/25 05:03:09;;;;;;;2.45;1.52;;;20.30;84.40;;;;;;5029056;28;20014;-77
2022/06/25 05:05:35;;;;;;;2.53;1.50;;;20.30;84.40;;;;;;5028858;28;20026;-77
2022/06/25 05:08:01;;;;;;;2.85;1.60;;;20.30;84.50;;;;;;5027040;28;20079;-78
2022/06/25 05:10:27;;;;;;;2.25;1.63;;;20.30;84.50;;;;;;5027368;28;20417;-77
2022/06/25 05:15:39;;;;;;;2.58;1.50;;;20.40;84.30;;;;;;5029008;28;20707;-76
2022/06/25 05:18:06;;;;;;;2.92;1.40;;;20.40;84.20;;;;;;5028179;28;20033;-80
2022/06/25 05:20:31;;;;;;;2.40;1.40;;;20.50;84.10;;;;;;5022383;28;20026;-75
2022/06/25 05:22:57;;;;;;;2.58;1.55;;;20.50;84.00;;;;;;5008128;28;20171;-75
2022/06/25 05:25:22;;;;;;;2.60;1.42;;;20.40;83.90;;;;;;5023900;28;20030;-75
2022/06/25 05:27:48;;;;;;;1.77;1.35;;;20.50;84.00;;;;;;5010833;28;20040;-75
2022/06/25 05:30:13;;;;;;;2.05;1.40;;;20.40;84.00;;;;;;5010021;28;20021;-77
2022/06/25 05:32:39;;;;;;;1.90;1.35;;;20.40;84.10;;;;;;5010406;28;20033;-77
2022/06/25 05:35:05;;;;;;;1.90;1.45;;;20.40;84.10;;;;;;5027899;28;20513;-77
2022/06/25 05:37:30;;;;;;;2.13;1.40;;;20.40;84.20;;;;;;5010261;28;20030;-76
2022/06/25 05:39:56;;;;;;;2.33;1.45;;;20.40;84.20;;;;;;5027856;28;20064;-77
2022/06/25 05:42:21;;;;;;;2.30;1.42;;;20.40;84.10;;;;;;5028381;28;20029;-77
2022/06/25 05:44:47;;;;;;;2.85;1.60;;;20.40;84.10;;;;;;5010422;28;20032;-78
2022/06/25 05:47:14;;;;;;;2.50;1.42;;;20.40;84.10;;;;;;5011259;28;20037;-76
2022/06/25 05:49:39;;;;;;;2.83;1.40;;;20.40;84.10;;;;;;5029635;28;20056;-76
2022/06/25 05:52:05;;;;;;;2.10;1.50;;;20.40;84.10;;;;;;5041101;28;20096;-77
2022/06/25 05:54:31;;;;;;;1.65;1.30;;;20.40;84.10;;;;;;5033609;28;20060;-79
2022/06/25 05:56:56;;;;;;;2.03;1.40;;;20.40;84.10;;;;;;5032630;28;20807;-76
2022/06/25 05:59:22;;;;;;;2.35;1.50;;;20.40;84.20;;;;;;5033854;28;20867;-77
2022/06/25 06:01:47;;;;;;;2.28;1.58;;;20.40;84.30;;;;;;5033779;28;20092;-76
2022/06/25 06:04:13;;;;;;;2.38;1.55;;;20.40;84.70;;;;;;5016484;28;20068;-76
2022/06/25 06:06:38;;;;;;;2.65;1.38;;;20.50;84.20;;;;;;4996800;28;20068;-76
2022/06/25 06:09:04;;;;;;;1.70;1.30;;;20.50;84.00;;;;;;5013984;28;20049;-77
2022/06/25 06:11:29;;;;;;;1.70;1.40;;;20.50;83.90;;;;;;4996975;28;20052;-76
2022/06/25 06:13:55;;;;;;;1.98;1.30;;;20.50;83.70;;;;;;4996293;28;20093;-77
2022/06/25 06:16:20;;;;;;;1.98;1.40;;;20.50;83.60;;;;;;5013682;28;20060;-77
2022/06/25 06:18:46;;;;;;;2.40;1.50;;;20.60;83.60;;;;;;5013798;28;20030;-76
2022/06/25 06:21:11;;;;;;;2.22;1.58;;;20.50;83.50;;;;;;4996661;28;20036;-77
2022/06/25 06:23:37;;;;;;;2.00;1.40;;;20.50;83.60;;;;;;4995712;28;20473;-78
2022/06/25 06:26:02;;;;;;;1.75;1.35;;;20.50;83.70;;;;;;4997137;28;20026;-77
2022/06/25 06:28:28;;;;;;;2.78;1.40;;;20.50;83.60;;;;;;5013438;28;20575;-77
2022/06/25 06:30:53;;;;;;;2.95;1.38;;;20.50;83.70;;;;;;4996398;28;20029;-75
2022/06/25 06:33:18;;;;;;;1.85;1.40;;;20.50;83.70;;;;;;4995894;28;20036;-77
2022/06/25 06:35:44;;;;;;;1.85;1.15;;;20.50;83.70;;;;;;4996186;28;20034;-76
2022/06/25 06:38:10;;;;;;;2.05;1.35;;;20.50;83.70;;;;;;4996027;28;20769;-78
2022/06/25 06:40:35;;;;;;;2.78;1.40;;;20.50;83.70;;;;;;5030503;28;20045;-76
2022/06/25 06:43:01;;;;;;;1.83;1.20;;;20.50;83.70;;;;;;5015601;28;20021;-77
2022/06/25 06:45:26;;;;;;;1.77;1.20;;;20.50;83.70;;;;;;5012504;28;20063;-80
2022/06/25 06:47:52;;;;;;;1.20;1.10;;;20.50;83.70;;;;;;5021141;28;20036;-80
2022/06/25 06:50:18;;;;;;;1.80;1.27;;;20.50;83.80;;;;;;5023880;28;20038;-77
2022/06/25 06:52:43;;;;;;;3.67;1.55;;;20.50;83.80;;;;;;5027600;28;20033;-78
2022/06/25 06:55:09;;;;;;;2.17;1.40;;;20.60;84.00;;;;;;5006236;28;20026;-78
2022/06/25 06:57:35;;;;;;;4.53;1.70;;;20.60;83.70;;;;;;5011434;28;20469;-78
2022/06/25 07:00:04;;;;;;;3.35;1.60;;;20.70;83.60;;;;;;5011159;28;20108;-77
2022/06/25 07:02:30;;;;;;;3.92;1.70;;;20.60;83.40;;;;;;5011084;28;20541;-78
2022/06/25 07:04:55;;;;;;;3.15;1.58;;;20.70;83.20;;;;;;5009889;28;20030;-78
2022/06/25 07:07:21;;;;;;;3.13;1.50;;;20.70;83.10;;;;;;5010902;28;20137;-77
2022/06/25 07:09:46;;;;;;;4.20;1.50;;;20.70;83.00;;;;;;5009793;28;20711;-77
2022/06/25 07:12:12;;;;;;;3.55;1.50;;;20.70;83.00;;;;;;5010079;28;20026;-78
2022/06/25 07:14:37;;;;;;;4.47;1.50;;;20.70;83.50;;;;;;5009856;28;20040;-76
2022/06/25 07:17:03;;;;;;;3.75;1.60;;;20.70;83.00;;;;;;5010910;28;20033;-77
2022/06/25 07:19:28;;;;;;;3.78;1.60;;;20.70;83.00;;;;;;5010520;28;20025;-77
2022/06/25 07:21:54;;;;;;;4.00;1.40;;;20.70;83.00;;;;;;5009606;28;20116;-75
2022/06/25 07:24:21;;;;;;;4.25;1.92;;;20.70;83.00;;;;;;5009218;28;20029;-76
2022/06/25 07:26:48;;;;;;;5.47;1.70;;;20.70;83.10;;;;;;5010739;28;20072;-77
2022/06/25 07:29:14;;;;;;;3.67;1.73;;;20.70;83.10;;;;;;5010474;28;20018;-77
2022/06/25 07:31:39;;;;;;;4.65;1.70;;;20.70;83.00;;;;;;5010893;28;20021;-77
2022/06/25 07:34:05;;;;;;;5.63;1.50;;;20.70;83.10;;;;;;5010303;28;20037;-77
2022/06/25 07:36:31;;;;;;;4.15;1.67;;;20.70;83.10;;;;;;4993088;28;20415;-77
2022/06/25 07:38:57;;;;;;;4.15;1.73;;;20.70;83.10;;;;;;5010156;28;20084;-76
2022/06/25 07:41:23;;;;;;;2.85;1.50;;;20.80;83.20;;;;;;5010385;28;20022;-77
2022/06/25 07:43:48;;;;;;;4.22;2.00;;;20.70;83.00;;;;;;5010241;28;20033;-76
2022/06/25 07:46:14;;;;;;;3.60;1.70;;;20.80;83.00;;;;;;5008071;28;20070;-78
2022/06/25 07:48:40;;;;;;;3.15;1.80;;;20.80;83.00;;;;;;4992293;28;20117;-79
2022/06/25 07:53:50;;;;;;;4.88;1.90;;;20.90;82.70;;;;;;5010234;28;20036;-77
2022/06/25 07:56:16;;;;;;;2.60;1.55;;;20.90;82.50;;;;;;4992441;28;20022;-77
2022/06/25 07:58:41;;;;;;;3.47;1.50;;;20.90;82.30;;;;;;5009606;28;20108;-82
2022/06/25 08:01:07;;;;;;;4.72;1.65;;;21.00;82.20;;;;;;5009919;28;20076;-78
2022/06/25 08:03:32;;;;;;;2.78;1.80;;;21.00;82.10;;;;;;5008780;28;20066;-77
2022/06/25 08:05:58;;;;;;;3.58;1.60;;;21.00;82.20;;;;;;5009898;28;20104;-77
2022/06/25 08:08:25;;;;;;;3.67;1.70;;;20.90;82.20;;;;;;5008473;28;20030;-77
2022/06/25 08:10:51;;;;;;;3.88;1.80;;;21.00;82.10;;;;;;5009582;28;20034;-79
2022/06/25 08:13:17;;;;;;;3.47;2.05;;;21.00;82.20;;;;;;5008732;28;20537;-77
2022/06/25 08:15:43;;;;;;;3.28;1.80;;;21.00;82.20;;;;;;4991486;28;20030;-78
2022/06/25 08:18:08;;;;;;;3.10;1.70;;;21.00;82.20;;;;;;4992250;28;20089;-76
2022/06/25 08:20:34;;;;;;;2.83;1.52;;;21.00;82.20;;;;;;5008181;28;20030;-77
2022/06/25 08:22:59;;;;;;;2.75;1.70;;;21.00;82.20;;;;;;5008377;28;20108;-76
2022/06/25 08:25:25;;;;;;;3.03;1.58;;;21.00;82.30;;;;;;5008303;28;20033;-80
2022/06/25 08:27:53;;;;;;;3.67;1.90;;;21.00;82.20;;;;;;5009465;28;20030;-76
2022/06/25 08:30:20;;;;;;;3.40;1.70;;;21.00;82.10;;;;;;5009300;28;20022;-77
2022/06/25 08:32:46;;;;;;;3.50;1.52;;;21.00;82.10;;;;;;4991429;28;20049;-82
2022/06/25 08:35:12;;;;;;;2.83;1.80;;;21.00;82.00;;;;;;5008814;28;20087;-78
2022/06/25 08:37:39;;;;;;;2.67;1.70;;;21.10;82.00;;;;;;5009007;28;20033;-82
2022/06/25 08:40:06;;;;;;;2.65;1.70;;;21.10;82.00;;;;;;5009637;28;20182;-80
2022/06/25 08:42:32;;;;;;;3.15;1.73;;;21.10;81.80;;;;;;5008144;28;20065;-77
2022/06/25 08:44:58;;;;;;;2.95;1.60;;;21.20;81.80;;;;;;5009369;28;20414;-77
2022/06/25 08:47:23;;;;;;;3.65;1.85;;;21.20;81.60;;;;;;5009406;28;20026;-80
2022/06/25 08:49:49;;;;;;;4.13;1.60;;;21.20;81.50;;;;;;5009187;28;20036;-77
2022/06/25 08:52:17;;;;;;;2.15;1.40;;;21.20;81.30;;;;;;4991685;28;20040;-79
2022/06/25 08:54:44;;;;;;;2.78;1.58;;;21.30;81.20;;;;;;4991799;28;20029;-77
2022/06/25 08:57:09;;;;;;;2.30;1.60;;;21.30;81.30;;;;;;5009147;28;20025;-79
2022/06/25 08:59:35;;;;;;;2.50;1.55;;;21.30;81.30;;;;;;4991561;28;20032;-78
2022/06/25 09:02:00;;;;;;;3.10;1.67;;;21.20;81.40;;;;;;4991360;28;20479;-77
2022/06/25 09:04:26;;;;;;;3.30;1.45;;;21.20;81.40;;;;;;5007914;28;20036;-77
2022/06/25 09:07:11;;;;;;;2.47;1.60;;;21.20;81.50;;;;;;5007728;28;20237;-78
2022/06/25 09:09:37;;;;;;;2.92;1.98;;;21.20;81.50;;;;;;5007672;28;20025;-78
2022/06/25 09:12:08;;;;;;;3.53;1.60;;;21.30;81.60;;;;;;5008732;28;20018;-79
2022/06/25 09:14:35;;;;;;;3.80;1.70;;;21.30;81.50;;;;;;4991183;28;20052;-77
2022/06/25 09:17:09;;;;;;;3.17;1.75;;;21.30;81.50;;;;;;5008990;28;20092;-78
2022/06/25 09:19:40;;;;;;;3.17;1.85;;;21.30;81.40;;;;;;5008649;28;20030;-78
2022/06/25 09:22:08;;;;;;;2.72;1.67;;;21.30;81.40;;;;;;4991344;28;20099;-78
2022/06/25 09:24:51;;;;;;;2.53;1.40;;;21.30;81.30;;;;;;5008815;28;20088;-78
2022/06/25 09:27:20;;;;;;;2.22;1.48;;;21.30;81.30;;;;;;5008208;28;20037;-81
2022/06/25 09:29:48;;;;;;;3.22;1.63;;;21.30;81.20;;;;;;5008712;28;20532;-77
2022/06/25 09:32:15;;;;;;;2.67;1.48;;;21.40;81.30;;;;;;4991235;28;20026;-78
2022/06/25 09:34:40;;;;;;;2.58;1.42;;;21.40;81.20;;;;;;4990587;28;20144;-78
2022/06/25 09:37:17;;;;;;;2.47;1.48;;;21.40;81.00;;;;;;4990889;28;20120;-77
2022/06/25 09:39:45;;;;;;;2.33;1.50;;;21.50;81.00;;;;;;4990661;28;20026;-82
2022/06/25 09:42:23;;;;;;;3.00;1.58;;;21.50;80.80;;;;;;4989897;28;20406;-80
2022/06/25 09:44:56;;;;;;;3.80;1.83;;;21.50;80.70;;;;;;4990915;28;20080;-79
2022/06/25 09:47:23;;;;;;;3.05;1.50;;;21.50;80.60;;;;;;5008842;28;20164;-78
2022/06/25 09:49:49;;;;;;;3.95;1.70;;;21.40;80.70;;;;;;4991070;28;20088;-78
2022/06/25 09:52:14;;;;;;;2.95;1.60;;;21.50;81.00;;;;;;4991558;28;20430;-79
2022/06/25 09:54:40;;;;;;;3.05;1.65;;;21.50;81.20;;;;;;4991219;28;20120;-78
2022/06/25 09:57:05;;;;;;;3.97;1.70;;;21.50;81.30;;;;;;5008431;28;20042;-79
2022/06/25 09:59:33;;;;;;;2.05;1.50;;;21.50;81.30;;;;;;5008274;28;20022;-78
2022/06/25 10:02:01;;;;;;;3.65;1.70;;;21.50;81.30;;;;;;4990864;28;20037;-79
2022/06/25 10:04:28;;;;;;;3.03;1.55;;;21.50;81.30;;;;;;4990797;28;20037;-78
2022/06/25 10:06:56;;;;;;;2.65;1.30;;;21.50;81.30;;;;;;5008444;28;20029;-81
2022/06/25 10:09:25;;;;;;;2.33;1.42;;;21.50;81.30;;;;;;4990779;28;20113;-78
2022/06/25 10:11:51;;;;;;;3.42;1.40;;;21.50;81.30;;;;;;4990881;28;20770;-78
2022/06/25 10:14:17;;;;;;;2.58;1.60;;;21.40;81.20;;;;;;4990702;28;20057;-79
2022/06/25 10:16:44;;;;;;;2.28;1.45;;;21.50;81.30;;;;;;5008546;28;20022;-79
2022/06/25 10:19:11;;;;;;;2.85;1.50;;;21.40;81.20;;;;;;4990597;28;20052;-78
2022/06/25 10:21:36;;;;;;;2.88;1.60;;;21.50;81.20;;;;;;4990788;28;20116;-79
2022/06/25 10:24:04;;;;;;;2.25;1.50;;;21.50;81.10;;;;;;4990656;28;20547;-77
2022/06/25 10:26:31;;;;;;;2.33;1.40;;;21.50;81.00;;;;;;4990435;28;20034;-76
2022/06/25 10:29:00;;;;;;;2.42;1.30;;;21.60;81.00;;;;;;4990587;28;20037;-77
2022/06/25 10:31:26;;;;;;;2.38;1.40;;;21.60;80.90;;;;;;5008147;28;20040;-77
2022/06/25 10:34:00;;;;;;;2.42;1.60;;;21.60;80.80;;;;;;5007860;28;20109;-80
2022/06/25 10:36:44;;;;;;;2.10;1.48;;;21.60;80.70;;;;;;5008197;28;20042;-77
2022/06/25 10:39:25;;;;;;;4.18;1.42;;;21.60;80.50;;;;;;5009193;28;20113;-78
2022/06/25 10:45:15;;;;;;;2.83;1.30;;;21.60;80.90;;;;;;5011310;28;20403;-79
2022/06/25 10:47:51;;;;;;;2.15;1.40;;;21.50;81.10;;;;;;4994043;28;20498;-80
2022/06/25 10:50:23;;;;;;;2.67;1.50;;;21.50;81.20;;;;;;4994108;28;20117;-79
2022/06/25 10:53:05;;;;;;;1.95;1.40;;;21.50;81.30;;;;;;5011479;28;20025;-77
2022/06/25 10:55:34;;;;;;;2.40;1.40;;;21.50;81.40;;;;;;5010306;28;20434;-80
2022/06/25 10:58:12;;;;;;;2.55;1.50;;;21.40;81.40;;;;;;5011495;28;20113;-80
2022/06/25 11:01:00;;;;;;;2.22;1.38;;;21.40;81.50;;;;;;4993915;28;20053;-79
2022/06/25 11:03:30;;;;;;;3.28;1.40;;;21.40;81.70;;;;;;4994139;28;20030;-80
2022/06/25 11:06:17;;;;;;;2.42;1.50;;;21.30;81.80;;;;;;4993934;28;20729;-78
2022/06/25 11:08:44;;;;;;;5.57;1.63;;;21.40;81.90;;;;;;5011572;28;20036;-78
2022/06/25 11:11:10;;;;;;;2.50;1.50;;;21.30;81.90;;;;;;4994382;28;20034;-79
2022/06/25 11:13:35;;;;;;;3.30;1.70;;;21.30;82.00;;;;;;4994378;28;20502;-79
2022/06/25 11:16:12;;;;;;;2.35;1.40;;;21.30;82.00;;;;;;5012536;28;20034;-79
2022/06/25 11:18:49;;;;;;;2.47;1.40;;;21.30;82.00;;;;;;5017694;28;20141;-78
2022/06/25 11:21:36;;;;;;;2.13;1.33;;;21.40;82.00;;;;;;5016439;28;20029;-80
2022/06/25 11:24:06;;;;;;;2.85;1.50;;;21.40;81.80;;;;;;5005942;28;20022;-80
2022/06/25 11:29:36;;;;;;;3.22;1.38;;;21.40;81.50;;;;;;5030983;28;20060;-80
2022/06/25 11:32:03;;;;;;;2.80;1.50;;;21.40;81.40;;;;;;5012694;28;20032;-78
2022/06/25 11:34:29;;;;;;;2.60;1.20;;;21.40;81.50;;;;;;5030120;28;20041;-79
2022/06/25 11:37:03;;;;;;;2.00;1.20;;;21.40;81.60;;;;;;5012409;28;20065;-78
2022/06/25 11:39:30;;;;;;;1.95;1.30;;;21.40;81.70;;;;;;5008910;28;20026;-78
2022/06/25 11:41:56;;;;;;;2.65;1.50;;;21.40;81.80;;;;;;5010212;28;20467;-79
2022/06/25 11:44:22;;;;;;;3.22;1.40;;;21.40;81.90;;;;;;4992676;28;20026;-82
2022/06/25 11:46:48;;;;;;;3.67;1.40;;;21.30;82.00;;;;;;4992756;28;20115;-79
2022/06/25 11:49:16;;;;;;;2.97;1.33;;;21.30;82.00;;;;;;4994013;28;20025;-78
2022/06/25 11:51:50;;;;;;;3.13;1.38;;;21.40;82.00;;;;;;5011087;28;20018;-79
2022/06/25 11:54:20;;;;;;;3.63;1.75;;;21.30;81.90;;;;;;5011300;28;20248;-78
2022/06/25 11:56:53;;;;;;;3.47;1.45;;;21.40;82.00;;;;;;5022566;28;20450;-78
2022/06/25 11:59:27;;;;;;;5.38;1.65;;;21.30;81.90;;;;;;5028064;28;20095;-79
2022/06/25 12:01:52;;;;;;;3.72;1.40;;;21.40;82.00;;;;;;5023102;28;20022;-78
2022/06/25 12:04:18;;;;;;;2.50;1.30;;;21.40;82.00;;;;;;5012420;28;20441;-79
2022/06/25 12:06:46;;;;;;;2.90;1.40;;;21.40;82.00;;;;;;5012403;28;20033;-79
2022/06/25 12:09:17;;;;;;;2.50;1.50;;;21.40;82.10;;;;;;5012263;28;20033;-78
2022/06/25 12:11:51;;;;;;;2.42;1.30;;;21.30;81.90;;;;;;5030031;28;20025;-78
2022/06/25 12:14:21;;;;;;;1.92;1.23;;;21.40;81.90;;;;;;5030191;28;20037;-79
2022/06/25 12:16:48;;;;;;;2.15;1.20;;;21.40;81.80;;;;;;5013021;28;20059;-80
2022/06/25 12:19:13;;;;;;;2.67;1.38;;;21.40;81.60;;;;;;5024944;28;20807;-79
2022/06/25 12:21:39;;;;;;;5.68;1.63;;;21.40;81.60;;;;;;5014061;28;20032;-78
2022/06/25 12:24:06;;;;;;;3.42;1.30;;;21.40;81.80;;;;;;5011945;28;20045;-81
2022/06/25 12:26:36;;;;;;;3.08;1.42;;;21.40;81.90;;;;;;4992478;28;20025;-78
2022/06/25 12:29:10;;;;;;;2.60;1.42;;;21.30;81.90;;;;;;5009663;28;20395;-79
2022/06/25 12:31:36;;;;;;;2.75;1.38;;;21.30;82.10;;;;;;5011190;28;20056;-83
2022/06/25 12:34:05;;;;;;;3.35;1.60;;;21.30;82.30;;;;;;4996923;28;20022;-78
2022/06/25 12:36:39;;;;;;;2.92;1.35;;;21.30;82.50;;;;;;5026204;28;20175;-79
2022/06/25 12:39:36;;;;;;;2.50;1.50;;;21.30;82.60;;;;;;5022904;28;20032;-78
2022/06/25 12:42:12;;;;;;;2.92;1.50;;;21.30;82.60;;;;;;5038472;28;20053;-79
2022/06/25 12:44:39;;;;;;;3.40;1.30;;;21.30;82.60;;;;;;5029098;28;20017;-82
2022/06/25 12:47:07;;;;;;;3.03;1.40;;;21.20;82.60;;;;;;5021623;28;20029;-79
2022/06/25 12:49:40;;;;;;;2.83;1.35;;;21.20;82.60;;;;;;5019083;28;20890;-78
2022/06/25 12:52:06;;;;;;;3.03;1.20;;;21.20;82.70;;;;;;5018176;28;20051;-80
2022/06/25 12:54:40;;;;;;;2.97;1.40;;;21.20;82.80;;;;;;5032669;28;20056;-79
2022/06/25 12:57:05;;;;;;;2.50;1.27;;;21.20;82.80;;;;;;5035398;28;20083;-79
2022/06/25 12:59:31;;;;;;;3.05;1.20;;;21.20;82.80;;;;;;5034248;28;20021;-80
2022/06/25 13:01:56;;;;;;;2.53;1.27;;;21.30;82.80;;;;;;5034557;28;20040;-83